Flight Track Log - Related Links

Times and Time Zones

All times are in EDT time to prevent confusion due to time zone crossing. See the ERR12K flight status page for this flight to view local times or setup timezone preferences in your user account.


Time Position Orientation Groundspeed Altitude Reporting Facility
EDT Latitude Longitude Course Direction KTS MPH feet Rate Location/Type
Sun 03:55:44 PM 64.7500 -156.3000 87° East 180 207 6,600  Level Anchorage Center
Sun 03:56:00 PM 64.7598 -156.1640 86° East  Level FlightAware Approximate
Sun 03:56:45 PM 64.7500 -156.2000 90° East 150 173 7,000  Level Anchorage Center
Sun 03:57:00 PM 64.7628 -156.0534 86° East  Level FlightAware Approximate
Sun 03:57:45 PM 64.7667 -156.0667 74° East 180 207 7,000  Level Anchorage Center
Sun 03:58:00 PM 64.7658 -155.9428 86° East  Level FlightAware Approximate
Sun 03:58:45 PM 64.7667 -155.9667 90° East 170 196 7,000  Level Anchorage Center
Sun 03:59:00 PM 64.7686 -155.8322 86° East  Level FlightAware Approximate
Sun 03:59:46 PM 64.7667 -155.8500 90° East 180 207 7,000  Level Anchorage Center
Sun 04:00:00 PM 64.7714 -155.7215 87° East  Level FlightAware Approximate
Sun 04:00:46 PM 64.7667 -155.7167 90° East 190 219 7,000  Level Anchorage Center
Sun 04:01:00 PM 64.7742 -155.6108 87° East  Level FlightAware Approximate
Sun 04:01:47 PM 64.7667 -155.5833 90° East 190 219 7,000  Level Anchorage Center
Sun 04:02:47 PM 64.7833 -155.4667 71° East 190 219 7,000  Level Anchorage Center
Sun 04:03:47 PM 64.7833 -155.3500 90° East 180 207 7,000  Level Anchorage Center
Sun 04:04:48 PM 64.7833 -155.2167 90° East 190 219 7,000  Level Anchorage Center
Sun 04:05:48 PM 64.7833 -155.1167 90° East 160 184 7,000  Level Anchorage Center
Sun 04:06:48 PM 64.8000 -155.0000 71° East 170 196 7,000  Level Anchorage Center
Sun 04:07:49 PM 64.8000 -154.8833 90° East 190 219 7,000  Level Anchorage Center
Sun 04:08:49 PM 64.8000 -154.7333 90° East 190 219 7,000  Level Anchorage Center
Sun 04:09:49 PM 64.8000 -154.6000 90° East 220 253 7,000  Level Anchorage Center
Sun 04:10:49 PM 64.8000 -154.5000 90° East 180 207 7,000  Level Anchorage Center
Sun 04:11:50 PM 64.8000 -154.3667 90° East 190 219 7,000  Level Anchorage Center
Sun 04:12:50 PM 64.8167 -154.2500 71° East 190 219 7,000  Level Anchorage Center
Sun 04:13:50 PM 64.8167 -154.1500 90° East 170 196 7,000  Level Anchorage Center
Sun 04:14:51 PM 64.8167 -154.0333 90° East 180 207 7,000  Level Anchorage Center
Sun 04:15:51 PM 64.8167 -153.9000 90° East 190 219 7,000  Level Anchorage Center
Sun 04:16:51 PM 64.8167 -153.7833 90° East 190 219 7,000  Level Anchorage Center
Sun 04:17:52 PM 64.8167 -153.6667 90° East 180 207 7,000  Level Anchorage Center
Sun 04:18:52 PM 64.8167 -153.5500 90° East 170 196 7,000  Level Anchorage Center
Sun 04:19:53 PM 64.8167 -153.4333 90° East 170 196 7,000  Level Anchorage Center
Sun 04:20:53 PM 64.8167 -153.3167 90° East 170 196 7,000  Level Anchorage Center
Sun 04:21:53 PM 64.8333 -153.2000 71° East 190 219 7,000  Level Anchorage Center
Sun 04:22:54 PM 64.8333 -153.0833 90° East 180 207 7,000  Level Anchorage Center
Sun 04:23:54 PM 64.8333 -152.9667 90° East 190 219 7,000  Level Anchorage Center
Sun 04:24:54 PM 64.8333 -152.8500 90° East 180 207 7,000  Level Anchorage Center
Sun 04:25:54 PM 64.8333 -152.7333 90° East 170 196 7,000  Level Anchorage Center
Sun 04:26:55 PM 64.8333 -152.6167 90° East 170 196 7,000  Level Anchorage Center
Sun 04:27:55 PM 64.8333 -152.4833 90° East 170 196 7,000  Level Anchorage Center
Sun 04:28:55 PM 64.8333 -152.3667 90° East 190 219 7,000  Level Anchorage Center
Sun 04:29:56 PM 64.8333 -152.2500 90° East 170 196 7,000  Level Anchorage Center
Sun 04:30:56 PM 64.8333 -152.1333 90° East 190 219 7,000  Level Anchorage Center
Sun 04:31:56 PM 64.8333 -152.0167 90° East 170 196 7,000  Level Anchorage Center
Sun 04:32:57 PM 64.8333 -151.9333 90° East 160 184 7,000  Level Anchorage Center
Sun 04:34:57 PM 64.8500 -151.6833 81° East 170 196 7,000  Level Anchorage Center
Sun 04:35:58 PM 64.8333 -151.5667 109° East 180 207 7,000  Level Anchorage Center
Sun 04:36:58 PM 64.8500 -151.4500 71° East 180 207 7,000  Level Anchorage Center
Sun 04:37:59 PM 64.8500 -151.3333 90° East 180 207 7,000  Level Anchorage Center
Sun 04:38:59 PM 64.8500 -151.2167 90° East 160 184 7,000  Level Anchorage Center
Sun 04:39:59 PM 64.8500 -151.1000 90° East 180 207 7,000  Level Anchorage Center
Sun 04:42:00 PM 64.8500 -150.8667 90° East 170 196 7,000  Level Anchorage Center
Sun 04:43:00 PM 64.8500 -150.7500 90° East 180 207 7,000  Level Anchorage Center
Sun 04:44:01 PM 64.8500 -150.6333 90° East 180 207 7,000  Level Anchorage Center
Sun 04:45:01 PM 64.8333 -150.5167 109° East 180 207 7,000  Level Anchorage Center
Sun 04:46:01 PM 64.8500 -150.4000 71° East 190 219 7,000  Level Anchorage Center
Sun 04:47:02 PM 64.8333 -150.3000 111° Southeast 170 196 7,000  Level Anchorage Center
Sun 04:48:02 PM 64.8333 -150.1667 90° East 180 207 7,000  Level Anchorage Center
Sun 04:50:03 PM 64.8333 -149.9333 90° East 170 196 7,000  Level Anchorage Center
Sun 04:51:03 PM 64.8333 -149.8167 90° East 170 196 7,000  Level Anchorage Center
Sun 04:52:03 PM 64.8333 -149.7167 90° East 170 196 7,000  Level Anchorage Center
Sun 04:53:04 PM 64.8333 -149.6000 90° East 170 196 7,000  Level Anchorage Center
Sun 04:55:00 PM 64.8337 -149.3852 90° East  Level FlightAware Approximate
Sun 05:02:00 PM 64.8167 -148.6129 90° East  Level FlightAware Approximate
Sun 05:03:00 PM 64.8167 -148.5018 90° East  Level FlightAware Approximate
Sun 05:04:00 PM 64.8169 -148.3908 90° East  Level FlightAware Approximate
Sun 05:05:00 PM 64.8169 -148.2797 90° East  Level FlightAware Approximate
Sun 05:06:00 PM 64.8169 -148.1687 90° East  Level FlightAware Approximate
Sun 05:07:00 PM 64.8168 -148.0576 90° East  Level FlightAware Approximate
Sun 05:08:00 PM 64.8123 -147.9481 106° East  Level FlightAware Approximate
Sun 05:09:00 PM 64.8000 -147.8500 106° East  Level FlightAware Approximate
Sun 05:10:00 PM 64.8151 -147.8564 106° East  Level Estimated
Sun 05:11:00 PM 64.8151 -147.8564 106° East  Level Estimated
Sun 05:12:00 PM 64.8151 -147.8564 106° East  Level Estimated
Sun 05:13:00 PM 64.8151 -147.8564 106° East  Level Estimated
Sun 05:14:00 PM 64.8151 -147.8564 106° East  Level Estimated
Sun 05:15:00 PM 64.8151 -147.8564 106° East  Level Estimated
Sun 05:16:00 PM 64.8151 -147.8564 106° East  Level Estimated
Sun 05:17:00 PM 64.8151 -147.8564 106° East  Level Estimated
Sun 05:18:00 PM 64.8151 -147.8564 106° East  Level Estimated
Sun 05:19:00 PM 64.8151 -147.8564 106° East  Level Estimated
Sun 05:20:00 PM 64.8151 -147.8564 106° East  Level Estimated
Sun 05:21:00 PM 64.8151 -147.8564 106° East  Level Estimated
Sun 05:22:00 PM 64.8151 -147.8564 106° East  Level Estimated
Sun 05:23:00 PM 64.8151 -147.8564 106° East  Level Estimated
Sun 05:24:00 PM 64.8151 -147.8564 106° East  Level Estimated
Sun 05:25:00 PM 64.8151 -147.8564 106° East  Level Estimated
Sun 05:26:00 PM 64.8151 -147.8564 106° East  Level Estimated

Login

Don't have an account? Register now (free) for customized features, flight alerts, and more!